Time;durP1;ratioP1;P1;durP2;ratioP2;P2;SDS_P1;SDS_P2;PMS_P1;PMS_P2;Temp;Humidity;BMP_temperature;BMP_pressure;BME280_temperature;BME280_humidity;BME280_pressure;Samples;Min_cycle;Max_cycle;Signal;HPM_P1;HPM_P2
2023/06/22 00:01:59;;;;;;;4.10;3.03;;;23.20;99.90;;;;;;5057021;28;20643;-62
2023/06/22 00:04:25;;;;;;;3.00;2.67;;;23.20;99.90;;;;;;5057119;28;20227;-61
2023/06/22 00:10:12;;;;;;;4.17;3.30;;;23.10;99.90;;;;;;5057793;28;20723;-61
2023/06/22 00:12:38;;;;;;;3.13;2.80;;;23.00;99.90;;;;;;5055790;28;20178;-61
2023/06/22 00:15:04;;;;;;;4.73;3.30;;;23.00;99.90;;;;;;5055763;28;20216;-60
2023/06/22 00:17:29;;;;;;;4.10;3.37;;;22.90;99.90;;;;;;5055820;28;20669;-61
2023/06/22 00:19:55;;;;;;;3.93;2.90;;;22.90;99.90;;;;;;5055294;28;20193;-61
2023/06/22 00:22:28;;;;;;;3.53;3.20;;;22.80;99.90;;;;;;5055539;28;20264;-61
2023/06/22 00:25:03;;;;;;;3.83;3.03;;;22.70;99.90;;;;;;5057523;28;20162;-60
2023/06/22 00:27:30;;;;;;;4.27;3.43;;;22.80;99.90;;;;;;5056609;28;20169;-60
2023/06/22 00:29:55;;;;;;;4.63;3.60;;;22.70;99.90;;;;;;5057161;28;20194;-61
2023/06/22 00:32:22;;;;;;;4.17;3.43;;;22.70;99.90;;;;;;5056905;28;20169;-61
2023/06/22 00:34:48;;;;;;;3.57;2.87;;;22.70;99.90;;;;;;5056908;28;20173;-60
2023/06/22 00:37:14;;;;;;;3.60;2.80;;;22.60;99.90;;;;;;5056917;28;20335;-62
2023/06/22 00:39:40;;;;;;;5.30;2.97;;;22.60;99.90;;;;;;5056778;28;20619;-61
2023/06/22 00:42:07;;;;;;;5.40;3.00;;;22.50;99.90;;;;;;5056540;28;20176;-62
2023/06/22 00:44:33;;;;;;;5.70;3.23;;;22.50;99.90;;;;;;5057304;28;20619;-61
2023/06/22 00:47:00;;;;;;;3.00;2.70;;;22.60;99.90;;;;;;5056985;28;20721;-61
2023/06/22 00:49:26;;;;;;;3.80;3.33;;;22.60;99.90;;;;;;5057582;28;20240;-61
2023/06/22 00:51:52;;;;;;;4.47;3.20;;;22.60;99.90;;;;;;5056740;28;20201;-60
2023/06/22 00:54:24;;;;;;;4.50;2.90;;;22.60;99.90;;;;;;5056660;28;20166;-62
2023/06/22 00:56:52;;;;;;;4.20;2.90;;;22.60;99.90;;;;;;5056817;28;20162;-61
2023/06/22 00:59:18;;;;;;;4.77;3.20;;;22.60;99.90;;;;;;5055714;28;20165;-61
2023/06/22 01:01:44;;;;;;;3.77;3.33;;;22.60;99.90;;;;;;5055314;28;20173;-62
2023/06/22 01:04:11;;;;;;;4.23;2.90;;;22.60;99.90;;;;;;5055374;28;20259;-62
2023/06/22 01:06:47;;;;;;;4.23;3.53;;;22.50;99.90;;;;;;5057563;28;20169;-61
2023/06/22 01:09:17;;;;;;;4.30;3.43;;;22.30;99.90;;;;;;5057457;28;20437;-61
2023/06/22 01:11:49;;;;;;;4.80;3.20;;;22.30;99.90;;;;;;5056580;28;20447;-62
2023/06/22 01:17:44;;;;;;;3.30;3.00;;;22.30;99.90;;;;;;5056784;28;20203;-61
2023/06/22 01:20:11;;;;;;;3.17;2.87;;;22.30;99.90;;;;;;5055240;28;20716;-62
2023/06/22 01:23:08;;;;;;;4.87;3.20;;;22.20;99.90;;;;;;5055973;28;20177;-62
2023/06/22 01:25:46;;;;;;;3.67;3.37;;;22.20;99.90;;;;;;5056396;28;20174;-62
2023/06/22 01:28:31;;;;;;;4.20;3.37;;;22.10;99.90;;;;;;5055253;28;20177;-62
2023/06/22 01:31:05;;;;;;;4.50;2.80;;;22.10;99.90;;;;;;5055443;28;20189;-62
2023/06/22 01:33:37;;;;;;;5.73;2.93;;;22.10;99.90;;;;;;5055253;28;20259;-62
2023/06/22 01:36:10;;;;;;;4.40;3.10;;;22.20;99.90;;;;;;5059438;28;20200;-62
2023/06/22 01:38:38;;;;;;;4.57;3.57;;;22.20;99.90;;;;;;5057651;28;20485;-60
2023/06/22 01:41:04;;;;;;;3.83;3.07;;;22.10;99.90;;;;;;5057548;28;20233;-62
2023/06/22 01:43:30;;;;;;;3.37;2.63;;;22.00;99.90;;;;;;5059472;28;20271;-62
2023/06/22 01:45:57;;;;;;;4.10;3.00;;;22.00;99.90;;;;;;5059334;28;20177;-63
2023/06/22 01:48:23;;;;;;;4.43;3.70;;;22.00;99.90;;;;;;5060761;28;20178;-62
2023/06/22 01:50:49;;;;;;;4.13;3.73;;;22.00;99.90;;;;;;5060613;28;20497;-63
2023/06/22 01:53:15;;;;;;;4.77;4.00;;;22.00;99.90;;;;;;5059490;28;20256;-62
2023/06/22 01:55:40;;;;;;;3.33;3.03;;;21.80;99.90;;;;;;5059136;28;20191;-62
2023/06/22 01:58:06;;;;;;;5.33;3.93;;;21.80;99.90;;;;;;5059467;28;20260;-62
2023/06/22 02:00:36;;;;;;;4.20;3.53;;;21.80;99.90;;;;;;5059250;28;20169;-62
2023/06/22 02:03:08;;;;;;;4.60;3.80;;;21.70;99.90;;;;;;5059042;28;20172;-62
2023/06/22 02:05:54;;;;;;;3.80;3.40;;;21.70;99.90;;;;;;5059648;28;20166;-61
2023/06/22 02:08:30;;;;;;;4.90;2.93;;;21.80;99.90;;;;;;5059746;28;20169;-62
2023/06/22 02:10:57;;;;;;;3.37;3.07;;;21.80;99.90;;;;;;5059056;28;20304;-62
2023/06/22 02:13:24;;;;;;;3.53;3.13;;;21.80;99.90;;;;;;5058479;28;20176;-63
2023/06/22 02:15:50;;;;;;;4.73;3.77;;;21.70;99.90;;;;;;5058808;28;20170;-63
2023/06/22 02:18:16;;;;;;;3.87;3.40;;;21.70;99.90;;;;;;5059188;28;20227;-61
2023/06/22 02:20:42;;;;;;;5.27;3.90;;;21.60;99.90;;;;;;5057778;28;20177;-62
2023/06/22 02:23:07;;;;;;;3.97;3.30;;;21.60;99.90;;;;;;5058767;28;20173;-63
2023/06/22 02:25:33;;;;;;;5.47;4.10;;;21.50;99.90;;;;;;5058738;28;20588;-63
2023/06/22 02:27:59;;;;;;;3.40;3.10;;;21.50;99.90;;;;;;5058538;28;20173;-62
2023/06/22 02:30:41;;;;;;;5.07;3.70;;;21.50;99.90;;;;;;5059085;28;20208;-62
2023/06/22 02:33:07;;;;;;;7.93;3.63;;;21.50;99.90;;;;;;5058555;28;20530;-62
2023/06/22 02:35:35;;;;;;;4.77;3.47;;;21.50;99.90;;;;;;5057949;28;20165;-62
2023/06/22 02:38:01;;;;;;;3.80;3.27;;;21.50;99.90;;;;;;5059161;28;20247;-62
2023/06/22 02:40:31;;;;;;;7.43;4.60;;;21.50;99.90;;;;;;5057953;28;20621;-62
2023/06/22 02:43:01;;;;;;;4.47;3.87;;;21.30;99.90;;;;;;5058755;28;20181;-62
2023/06/22 02:45:27;;;;;;;4.20;3.80;;;21.20;99.90;;;;;;5058129;28;20553;-63
2023/06/22 02:47:53;;;;;;;5.17;4.10;;;21.20;99.90;;;;;;5058945;28;20338;-63
2023/06/22 02:50:18;;;;;;;5.20;4.47;;;21.20;99.90;;;;;;5058750;28;20315;-63
2023/06/22 02:52:44;;;;;;;4.70;4.00;;;21.20;99.90;;;;;;5058852;28;20165;-62
2023/06/22 02:55:09;;;;;;;4.70;3.50;;;21.20;99.90;;;;;;5058010;28;20188;-62
2023/06/22 02:57:36;;;;;;;4.53;3.70;;;21.20;99.90;;;;;;5057656;28;20486;-62
2023/06/22 03:00:16;;;;;;;7.37;4.03;;;21.20;99.90;;;;;;5058992;28;20549;-62
2023/06/22 03:02:43;;;;;;;4.67;4.23;;;21.20;99.90;;;;;;5053230;28;20603;-61
2023/06/22 03:05:13;;;;;;;4.77;4.17;;;21.20;99.90;;;;;;5050726;28;20177;-60
2023/06/22 03:07:41;;;;;;;5.23;4.17;;;21.20;99.90;;;;;;5051821;28;20174;-62
2023/06/22 03:10:09;;;;;;;5.73;4.43;;;21.20;99.90;;;;;;5053476;28;20204;-62
2023/06/22 03:12:35;;;;;;;7.20;4.07;;;21.10;99.90;;;;;;5054938;28;20188;-61
2023/06/22 03:15:01;;;;;;;4.87;3.70;;;21.10;99.90;;;;;;5055513;28;20534;-61
2023/06/22 03:17:33;;;;;;;5.77;4.17;;;21.10;99.90;;;;;;5053083;28;20461;-62
2023/06/22 03:20:00;;;;;;;6.60;4.23;;;21.10;99.90;;;;;;5055270;28;20595;-60
2023/06/22 03:22:26;;;;;;;4.80;3.90;;;21.10;99.90;;;;;;5058007;28;20267;-61
2023/06/22 03:25:33;;;;;;;5.50;4.00;;;21.00;99.90;;;;;;5059007;28;20169;-61
2023/06/22 03:28:00;;;;;;;5.73;4.17;;;21.00;99.90;;;;;;5057805;28;20188;-62
2023/06/22 03:30:26;;;;;;;4.87;4.47;;;21.00;99.90;;;;;;5058098;28;20189;-61
2023/06/22 03:33:01;;;;;;;4.40;4.00;;;21.00;99.90;;;;;;5058145;28;20176;-61
2023/06/22 03:35:26;;;;;;;7.03;4.40;;;21.00;99.90;;;;;;5057429;28;20296;-61
2023/06/22 03:37:52;;;;;;;4.70;4.30;;;20.90;99.90;;;;;;5057984;28;20248;-61
2023/06/22 03:40:18;;;;;;;5.50;4.70;;;20.90;99.90;;;;;;5058308;28;20536;-61
2023/06/22 03:42:43;;;;;;;4.77;4.27;;;20.90;99.90;;;;;;5057871;28;20433;-62
2023/06/22 03:45:10;;;;;;;6.33;4.20;;;20.90;99.90;;;;;;5057313;28;20184;-60
2023/06/22 03:47:35;;;;;;;5.63;4.30;;;20.90;99.90;;;;;;5057661;28;20603;-63
2023/06/22 03:50:03;;;;;;;4.33;3.93;;;20.90;99.90;;;;;;5056791;28;20769;-62
2023/06/22 03:52:29;;;;;;;5.87;4.30;;;20.90;99.90;;;;;;5055803;28;20598;-61
2023/06/22 03:54:54;;;;;;;4.43;4.03;;;20.90;99.90;;;;;;5055083;28;20165;-61
2023/06/22 03:57:20;;;;;;;6.57;4.30;;;20.90;99.90;;;;;;5054982;28;20692;-61
2023/06/22 03:59:46;;;;;;;4.47;3.83;;;20.90;99.90;;;;;;5053610;28;20186;-60
2023/06/22 04:02:13;;;;;;;6.93;4.70;;;20.90;99.90;;;;;;5051369;28;20417;-60
2023/06/22 04:04:41;;;;;;;4.77;4.30;;;20.80;99.90;;;;;;5053121;28;20204;-61
2023/06/22 04:07:08;;;;;;;5.77;3.70;;;20.80;99.90;;;;;;5052231;28;20247;-62
2023/06/22 04:09:33;;;;;;;8.07;3.77;;;20.80;99.90;;;;;;5052011;28;20215;-62
2023/06/22 04:11:59;;;;;;;6.10;4.30;;;20.90;99.90;;;;;;5050419;28;20169;-62
2023/06/22 04:14:25;;;;;;;6.83;4.80;;;20.90;99.90;;;;;;5050483;28;20256;-62
2023/06/22 04:16:51;;;;;;;5.13;4.20;;;20.90;99.90;;;;;;5049473;28;20519;-62
2023/06/22 04:19:17;;;;;;;6.47;4.37;;;20.90;99.90;;;;;;5050177;28;20558;-62
2023/06/22 04:21:44;;;;;;;4.90;3.80;;;20.90;99.90;;;;;;5054642;28;20180;-62
2023/06/22 04:24:13;;;;;;;5.77;4.47;;;20.90;99.90;;;;;;5056210;28;20161;-61
2023/06/22 04:26:41;;;;;;;6.30;4.93;;;20.90;99.90;;;;;;5055078;28;20165;-62
2023/06/22 04:29:08;;;;;;;6.77;5.03;;;20.80;99.90;;;;;;5055515;28;20235;-62
2023/06/22 04:31:36;;;;;;;4.67;4.13;;;20.70;99.90;;;;;;5056021;28;20154;-61
2023/06/22 04:34:06;;;;;;;4.90;3.93;;;20.70;99.90;;;;;;5055847;28;20181;-62
2023/06/22 04:36:37;;;;;;;5.50;3.97;;;20.70;99.90;;;;;;5055550;28;20812;-63
2023/06/22 04:39:23;;;;;;;5.00;4.10;;;20.70;99.90;;;;;;5056147;28;20455;-62
2023/06/22 04:41:51;;;;;;;6.80;4.70;;;20.70;99.90;;;;;;5055035;28;20280;-61
2023/06/22 04:44:23;;;;;;;7.17;4.30;;;20.70;99.90;;;;;;5055627;28;20188;-61
2023/06/22 04:46:53;;;;;;;4.13;3.70;;;20.70;99.90;;;;;;5054505;28;20260;-63
2023/06/22 04:49:19;;;;;;;4.97;4.17;;;20.70;99.90;;;;;;5053861;28;20170;-62
2023/06/22 04:51:45;;;;;;;4.03;3.30;;;20.70;99.90;;;;;;5052006;28;20536;-62
2023/06/22 04:54:11;;;;;;;5.77;4.20;;;20.70;99.90;;;;;;5052532;28;20170;-61
2023/06/22 04:56:41;;;;;;;5.37;4.10;;;20.70;99.90;;;;;;5053246;28;20246;-62
2023/06/22 04:59:13;;;;;;;5.23;3.80;;;20.80;99.90;;;;;;5053689;28;20738;-62
2023/06/22 05:01:38;;;;;;;4.50;3.50;;;20.80;99.90;;;;;;5053163;28;20469;-62
2023/06/22 05:04:06;;;;;;;6.30;4.53;;;20.90;99.90;;;;;;5051807;28;20569;-62
2023/06/22 05:06:32;;;;;;;4.87;3.90;;;20.90;99.90;;;;;;5051828;28;20230;-63
2023/06/22 05:08:57;;;;;;;8.70;4.20;;;20.90;99.90;;;;;;5051077;28;20165;-63
2023/06/22 05:11:31;;;;;;;4.50;4.07;;;20.90;99.90;;;;;;5050390;28;20261;-61
2023/06/22 05:13:57;;;;;;;5.80;4.40;;;20.90;99.90;;;;;;5048720;28;20242;-61
2023/06/22 05:16:24;;;;;;;5.57;4.13;;;20.90;99.90;;;;;;5040200;28;20173;-61
2023/06/22 05:18:55;;;;;;;4.83;3.43;;;20.90;99.90;;;;;;5039087;28;20178;-61
2023/06/22 05:21:33;;;;;;;4.00;3.43;;;20.90;99.90;;;;;;5047480;28;20226;-60
2023/06/22 05:24:02;;;;;;;5.33;3.23;;;20.90;99.90;;;;;;5053529;28;20177;-62
2023/06/22 05:26:34;;;;;;;4.93;3.30;;;20.90;99.90;;;;;;5054747;28;20334;-61
2023/06/22 05:29:02;;;;;;;6.33;3.30;;;20.90;99.90;;;;;;5055039;28;20173;-61
2023/06/22 05:31:27;;;;;;;3.53;3.03;;;20.90;99.90;;;;;;5053757;28;20192;-62
2023/06/22 05:33:55;;;;;;;4.83;2.93;;;20.90;99.90;;;;;;5051861;28;20178;-61
2023/06/22 05:36:24;;;;;;;4.83;3.13;;;20.90;99.90;;;;;;5051418;28;20192;-62
2023/06/22 05:38:51;;;;;;;6.43;3.70;;;20.90;99.90;;;;;;5050881;28;20451;-62
2023/06/22 05:41:17;;;;;;;6.87;3.50;;;20.90;99.90;;;;;;5050568;28;20237;-61
2023/06/22 05:43:42;;;;;;;5.50;3.57;;;21.00;99.90;;;;;;5051465;28;20212;-62
2023/06/22 05:46:08;;;;;;;3.80;2.73;;;21.00;99.90;;;;;;5049180;28;20725;-62
2023/06/22 05:48:33;;;;;;;4.67;2.60;;;21.00;99.90;;;;;;5049719;28;20636;-62
2023/06/22 05:50:59;;;;;;;5.10;3.20;;;20.90;99.90;;;;;;5048765;28;20243;-62
2023/06/22 05:53:25;;;;;;;3.10;2.80;;;21.00;99.90;;;;;;5049183;28;20202;-62
2023/06/22 05:55:51;;;;;;;5.43;3.00;;;21.00;99.90;;;;;;5048631;28;20174;-62
2023/06/22 05:58:16;;;;;;;4.03;3.53;;;21.00;99.90;;;;;;5051165;28;20190;-61
2023/06/22 06:00:43;;;;;;;4.10;2.43;;;21.00;99.90;;;;;;5049787;28;20170;-61
2023/06/22 06:03:09;;;;;;;3.10;2.80;;;21.00;99.90;;;;;;5048667;28;20173;-62
2023/06/22 06:05:35;;;;;;;4.03;3.00;;;21.10;99.90;;;;;;5050777;28;20177;-62
2023/06/22 06:08:04;;;;;;;5.90;3.47;;;21.10;99.90;;;;;;5048119;28;20177;-62
2023/06/22 06:10:31;;;;;;;6.30;2.73;;;21.10;99.90;;;;;;5047847;28;20208;-62
2023/06/22 06:12:56;;;;;;;3.93;2.80;;;21.20;99.90;;;;;;5047277;28;20208;-62
2023/06/22 06:15:22;;;;;;;7.70;2.87;;;21.20;99.90;;;;;;5045201;28;20166;-62
2023/06/22 06:17:49;;;;;;;5.17;2.57;;;21.20;99.90;;;;;;5042111;28;20169;-63
2023/06/22 06:20:16;;;;;;;4.00;2.80;;;21.20;99.90;;;;;;5042261;28;20181;-60
2023/06/22 06:22:42;;;;;;;3.60;3.13;;;21.20;99.90;;;;;;5044541;28;20177;-62
2023/06/22 06:25:09;;;;;;;5.37;3.13;;;21.20;99.90;;;;;;5044956;28;20177;-61
2023/06/22 06:27:34;;;;;;;3.07;2.13;;;21.30;99.90;;;;;;5043700;28;20181;-62
2023/06/22 06:30:01;;;;;;;5.00;2.80;;;21.30;99.90;;;;;;5046078;28;20205;-61
2023/06/22 06:32:26;;;;;;;8.03;2.47;;;21.40;99.90;;;;;;5049116;28;20177;-62
2023/06/22 06:34:52;;;;;;;3.27;2.70;;;21.40;99.90;;;;;;5048746;28;20186;-61
2023/06/22 06:37:18;;;;;;;2.57;2.20;;;21.50;99.90;;;;;;5052145;28;20169;-62
2023/06/22 06:39:44;;;;;;;5.87;2.87;;;21.40;99.90;;;;;;5053674;28;20229;-61
2023/06/22 06:42:11;;;;;;;5.70;3.00;;;21.50;99.90;;;;;;5052112;28;20173;-62
2023/06/22 06:44:37;;;;;;;6.67;2.77;;;21.50;99.90;;;;;;5053719;28;20300;-62
2023/06/22 06:47:04;;;;;;;3.37;2.70;;;21.50;99.90;;;;;;5054135;28;20185;-61
2023/06/22 06:49:29;;;;;;;3.07;2.07;;;21.60;99.90;;;;;;5053201;28;20751;-62
2023/06/22 06:51:55;;;;;;;2.90;2.37;;;21.60;99.90;;;;;;5054337;28;20201;-63
2023/06/22 06:54:21;;;;;;;4.77;2.83;;;21.60;99.90;;;;;;5054279;28;20179;-61
2023/06/22 06:56:48;;;;;;;2.63;2.40;;;21.60;99.90;;;;;;5053534;28;20181;-63
2023/06/22 06:59:15;;;;;;;3.20;2.53;;;21.60;99.90;;;;;;5051693;28;20170;-62
2023/06/22 07:01:41;;;;;;;2.93;2.67;;;21.70;99.90;;;;;;5051236;28;20172;-62
2023/06/22 07:04:07;;;;;;;4.83;2.23;;;21.70;99.90;;;;;;5050003;28;20236;-62
2023/06/22 07:06:33;;;;;;;3.27;2.37;;;21.70;99.90;;;;;;5051874;28;20238;-62
2023/06/22 07:08:59;;;;;;;4.17;2.60;;;21.70;99.90;;;;;;5051677;28;20169;-62
2023/06/22 07:11:25;;;;;;;5.60;3.13;;;21.70;99.90;;;;;;5050052;28;20597;-61
2023/06/22 07:13:51;;;;;;;6.57;3.10;;;21.70;99.90;;;;;;5043604;28;20477;-62
2023/06/22 07:16:18;;;;;;;3.70;2.80;;;21.70;99.90;;;;;;5039607;28;20173;-62
2023/06/22 07:18:43;;;;;;;2.40;2.20;;;21.70;99.90;;;;;;5041269;28;20241;-62
2023/06/22 07:21:09;;;;;;;2.90;2.40;;;21.70;99.90;;;;;;5039487;28;20327;-63
2023/06/22 07:23:35;;;;;;;4.87;2.07;;;21.70;99.90;;;;;;5036189;28;20571;-62
2023/06/22 07:26:02;;;;;;;3.90;2.23;;;21.80;99.90;;;;;;5035345;28;20367;-61
2023/06/22 07:28:30;;;;;;;5.53;2.50;;;21.80;99.90;;;;;;5037236;28;20176;-62
2023/06/22 07:30:57;;;;;;;2.53;2.23;;;21.80;99.90;;;;;;5035510;28;20274;-62
2023/06/22 07:33:22;;;;;;;3.67;2.43;;;21.90;99.90;;;;;;5034611;28;20219;-62
2023/06/22 07:35:51;;;;;;;6.53;2.50;;;21.90;99.90;;;;;;5036208;28;20200;-62
2023/06/22 07:38:17;;;;;;;3.67;2.40;;;21.90;99.90;;;;;;5040917;28;20246;-62
2023/06/22 07:40:43;;;;;;;3.00;1.90;;;22.00;99.90;;;;;;5045847;28;20245;-61
2023/06/22 07:43:09;;;;;;;2.57;2.00;;;22.00;99.90;;;;;;5046345;28;20173;-60
2023/06/22 07:45:35;;;;;;;2.93;2.37;;;22.00;99.90;;;;;;5047915;28;20192;-61
2023/06/22 07:48:01;;;;;;;3.70;2.40;;;22.10;99.90;;;;;;5050330;28;20176;-58
2023/06/22 07:50:27;;;;;;;3.43;2.57;;;22.10;99.90;;;;;;5051709;28;20212;-61
2023/06/22 07:52:53;;;;;;;3.00;2.43;;;22.10;99.90;;;;;;5051967;28;20192;-61
2023/06/22 07:55:19;;;;;;;3.60;2.43;;;22.20;99.90;;;;;;5053046;28;20165;-60
2023/06/22 07:57:48;;;;;;;4.63;2.97;;;22.20;99.90;;;;;;5052121;28;20203;-61
2023/06/22 08:00:21;;;;;;;3.13;2.10;;;22.20;99.90;;;;;;5053491;28;20205;-61
2023/06/22 08:02:47;;;;;;;2.07;1.83;;;22.30;99.90;;;;;;5052870;28;20177;-60
2023/06/22 08:05:15;;;;;;;3.80;1.80;;;22.30;99.90;;;;;;5052446;28;20243;-60
2023/06/22 08:07:42;;;;;;;2.37;2.17;;;22.30;99.90;;;;;;5049850;28;20166;-60
2023/06/22 08:10:11;;;;;;;2.97;2.00;;;22.40;99.90;;;;;;5050026;28;20197;-58
2023/06/22 08:12:37;;;;;;;1.77;1.67;;;22.40;99.90;;;;;;5051043;28;20678;-61
2023/06/22 08:15:10;;;;;;;2.63;2.17;;;22.40;99.90;;;;;;5051910;28;20788;-60
2023/06/22 08:17:40;;;;;;;2.53;1.90;;;22.50;99.90;;;;;;5051010;28;20226;-61
2023/06/22 08:20:11;;;;;;;3.80;1.90;;;22.50;99.90;;;;;;5047998;28;20576;-61
2023/06/22 08:22:37;;;;;;;2.50;2.03;;;22.60;99.90;;;;;;5050247;28;20169;-61
2023/06/22 08:25:06;;;;;;;2.37;1.93;;;22.60;99.90;;;;;;5051009;28;20532;-61
2023/06/22 08:27:31;;;;;;;2.60;2.20;;;22.60;99.90;;;;;;5050429;28;20162;-61
2023/06/22 08:30:00;;;;;;;4.93;2.43;;;22.70;99.90;;;;;;5050348;28;20204;-61
2023/06/22 08:32:32;;;;;;;2.13;1.87;;;22.70;99.90;;;;;;5050073;28;20230;-61
2023/06/22 08:34:58;;;;;;;3.30;2.70;;;22.70;99.90;;;;;;5052458;28;20177;-61
2023/06/22 08:37:30;;;;;;;4.57;2.70;;;22.80;99.90;;;;;;5050467;28;20169;-61
2023/06/22 08:39:59;;;;;;;2.43;2.10;;;22.80;99.90;;;;;;5050068;28;20627;-60
2023/06/22 08:42:26;;;;;;;5.87;2.53;;;22.80;99.90;;;;;;5050951;28;20260;-61
2023/06/22 08:44:52;;;;;;;2.40;2.00;;;22.90;99.90;;;;;;5052182;28;20179;-62
2023/06/22 08:47:17;;;;;;;2.37;1.80;;;22.90;99.90;;;;;;5053333;28;20260;-61
2023/06/22 08:49:43;;;;;;;2.50;2.30;;;22.90;99.90;;;;;;5054472;28;20370;-60
2023/06/22 08:52:09;;;;;;;4.00;2.03;;;22.90;99.90;;;;;;5051343;28;20165;-59
2023/06/22 08:54:34;;;;;;;3.27;1.80;;;23.00;99.90;;;;;;5053939;28;20162;-61
2023/06/22 08:57:02;;;;;;;3.10;2.27;;;23.00;99.90;;;;;;5053215;28;20170;-61
2023/06/22 08:59:32;;;;;;;4.17;2.40;;;23.10;99.90;;;;;;5054572;28;20808;-61
2023/06/22 09:01:58;;;;;;;1.97;1.73;;;23.10;99.90;;;;;;5052764;28;20173;-62
2023/06/22 09:04:24;;;;;;;2.20;2.00;;;23.10;99.90;;;;;;5051825;28;20173;-60
2023/06/22 09:06:52;;;;;;;2.87;2.10;;;23.10;99.90;;;;;;5051427;28;20212;-61
2023/06/22 09:09:18;;;;;;;2.87;2.30;;;23.20;99.90;;;;;;5051463;28;20618;-61
2023/06/22 09:11:50;;;;;;;2.77;2.23;;;23.30;99.90;;;;;;5048176;28;20170;-58
2023/06/22 09:14:15;;;;;;;2.17;1.70;;;23.20;99.90;;;;;;5047794;28;20200;-60
2023/06/22 09:16:41;;;;;;;3.00;2.27;;;23.30;99.90;;;;;;5045647;28;20170;-60
2023/06/22 09:19:06;;;;;;;3.00;2.37;;;23.30;99.90;;;;;;5049743;28;20247;-61
2023/06/22 09:21:32;;;;;;;2.50;2.00;;;23.40;99.90;;;;;;5051090;28;20193;-61
2023/06/22 09:23:59;;;;;;;4.03;2.10;;;23.40;99.90;;;;;;5049978;28;20473;-60
2023/06/22 09:26:24;;;;;;;4.47;2.17;;;23.40;99.90;;;;;;5049457;28;20169;-61
2023/06/22 09:28:51;;;;;;;2.00;1.80;;;23.50;99.90;;;;;;5049010;28;20180;-61
2023/06/22 09:31:25;;;;;;;2.60;2.07;;;23.40;99.90;;;;;;5050863;28;20275;-61
2023/06/22 09:33:56;;;;;;;3.20;1.93;;;23.50;99.90;;;;;;5051150;28;20486;-61
2023/06/22 09:36:22;;;;;;;3.90;2.10;;;23.50;99.90;;;;;;5046922;28;20592;-59
2023/06/22 09:38:49;;;;;;;3.80;1.80;;;23.60;99.90;;;;;;5045822;28;20161;-60
2023/06/22 09:41:23;;;;;;;1.90;1.80;;;23.60;99.90;;;;;;5043736;28;20241;-61
2023/06/22 09:43:49;;;;;;;3.53;2.67;;;23.70;99.90;;;;;;5047217;28;20271;-60
2023/06/22 09:46:17;;;;;;;4.10;2.00;;;23.70;99.90;;;;;;5048846;28;20284;-60
2023/06/22 09:48:43;;;;;;;2.90;2.10;;;23.70;99.90;;;;;;5047616;28;20169;-60
2023/06/22 09:51:09;;;;;;;2.07;1.80;;;23.80;99.90;;;;;;5048738;28;20197;-60
2023/06/22 09:53:41;;;;;;;2.10;1.90;;;23.80;99.90;;;;;;5050529;28;20157;-60
2023/06/22 09:56:06;;;;;;;2.83;1.90;;;23.80;99.90;;;;;;5052550;28;20177;-60
2023/06/22 09:58:32;;;;;;;2.03;1.80;;;23.90;99.90;;;;;;5055439;28;20169;-61
2023/06/22 10:00:59;;;;;;;1.93;1.83;;;23.90;99.90;;;;;;5057829;28;20272;-61
2023/06/22 10:03:25;;;;;;;2.37;1.97;;;24.00;99.90;;;;;;5057533;28;20821;-61
2023/06/22 10:05:51;;;;;;;3.87;2.50;;;24.00;99.90;;;;;;5054658;28;20219;-61
2023/06/22 10:08:17;;;;;;;2.10;1.77;;;24.00;99.90;;;;;;5052753;28;20185;-61
2023/06/22 10:10:52;;;;;;;3.53;2.13;;;24.00;99.90;;;;;;5055887;28;20250;-60
2023/06/22 10:13:18;;;;;;;2.37;2.17;;;24.10;99.90;;;;;;5056748;28;20190;-60
2023/06/22 10:15:49;;;;;;;5.93;2.77;;;24.10;99.90;;;;;;5054716;28;20170;-61
2023/06/22 10:18:21;;;;;;;4.90;2.37;;;24.20;99.90;;;;;;5054361;28;20168;-61
2023/06/22 10:20:51;;;;;;;3.00;2.27;;;24.20;99.90;;;;;;5055839;28;20179;-61
2023/06/22 10:23:20;;;;;;;3.27;2.20;;;24.20;99.90;;;;;;5056426;28;20180;-60
2023/06/22 10:25:53;;;;;;;2.87;2.20;;;24.30;99.90;;;;;;5055327;28;20670;-59
2023/06/22 10:28:22;;;;;;;2.83;1.83;;;24.40;99.90;;;;;;5053120;28;20200;-59
2023/06/22 10:30:48;;;;;;;2.60;2.23;;;24.40;99.90;;;;;;5054663;28;20299;-60
2023/06/22 10:33:14;;;;;;;2.77;2.57;;;24.50;99.90;;;;;;5054463;28;20252;-61
2023/06/22 10:35:39;;;;;;;3.33;2.27;;;24.50;99.90;;;;;;5054110;28;20170;-60
2023/06/22 10:38:06;;;;;;;4.65;2.50;;;24.50;99.90;;;;;;5053453;28;20173;-59
2023/06/22 10:40:33;;;;;;;2.67;2.30;;;24.50;99.90;;;;;;5056826;28;20320;-60
2023/06/22 10:43:01;;;;;;;4.13;2.33;;;24.60;99.90;;;;;;5055842;28;20203;-60
2023/06/22 10:45:27;;;;;;;2.95;1.92;;;24.60;99.90;;;;;;5054565;28;20166;-61
2023/06/22 10:48:02;;;;;;;3.27;2.57;;;24.60;99.90;;;;;;5055182;28;20184;-60
2023/06/22 10:50:28;;;;;;;2.90;2.40;;;24.70;99.90;;;;;;5054894;28;20205;-61
2023/06/22 10:53:00;;;;;;;3.80;2.50;;;24.70;99.90;;;;;;5052900;28;20647;-60
2023/06/22 10:55:25;;;;;;;3.60;2.70;;;24.70;99.90;;;;;;5053683;28;20169;-60
2023/06/22 10:57:52;;;;;;;2.92;2.60;;;24.80;99.90;;;;;;5054713;28;20173;-61
2023/06/22 11:00:17;;;;;;;4.20;2.73;;;24.80;99.90;;;;;;5053373;28;20650;-60
2023/06/22 11:02:44;;;;;;;4.95;2.60;;;24.80;99.90;;;;;;5054411;28;20417;-61
2023/06/22 11:05:10;;;;;;;4.33;2.33;;;24.90;99.90;;;;;;5054463;28;20170;-60
2023/06/22 11:07:37;;;;;;;2.60;2.38;;;24.90;99.90;;;;;;5054988;28;20744;-61
2023/06/22 11:10:03;;;;;;;3.92;2.75;;;25.00;99.90;;;;;;5054614;28;20601;-61
2023/06/22 11:12:29;;;;;;;2.65;2.38;;;25.00;99.90;;;;;;5055069;28;20315;-61
2023/06/22 11:14:57;;;;;;;3.60;2.45;;;25.10;99.90;;;;;;5054722;28;20457;-61
2023/06/22 11:17:22;;;;;;;3.97;3.00;;;25.10;99.90;;;;;;5053816;28;20667;-61
2023/06/22 11:19:50;;;;;;;3.25;2.58;;;25.20;99.90;;;;;;5054503;28;20196;-61
2023/06/22 11:22:22;;;;;;;3.58;3.22;;;25.30;99.90;;;;;;5054728;28;20319;-60
2023/06/22 11:24:47;;;;;;;3.55;2.78;;;25.30;99.90;;;;;;5053373;28;20176;-62
2023/06/22 11:27:13;;;;;;;3.30;3.00;;;25.40;99.90;;;;;;5054064;28;20180;-61
2023/06/22 11:29:40;;;;;;;2.90;2.60;;;25.50;99.90;;;;;;5053990;28;20493;-60
2023/06/22 11:32:07;;;;;;;4.03;3.00;;;25.50;99.90;;;;;;5053492;28;20180;-59
2023/06/22 11:34:42;;;;;;;3.55;2.45;;;25.60;99.90;;;;;;5055402;28;20162;-61
2023/06/22 11:37:10;;;;;;;3.60;2.90;;;25.60;99.90;;;;;;5055751;28;20204;-61
2023/06/22 11:39:36;;;;;;;2.75;2.42;;;25.70;99.90;;;;;;5056921;28;20176;-61
2023/06/22 11:42:03;;;;;;;4.03;2.95;;;25.80;99.90;;;;;;5056816;28;20272;-61
2023/06/22 11:44:28;;;;;;;3.65;2.88;;;25.80;99.90;;;;;;5056072;28;20258;-61
2023/06/22 11:47:00;;;;;;;6.30;3.13;;;25.80;99.90;;;;;;5055048;28;20165;-60
2023/06/22 11:49:30;;;;;;;2.90;2.60;;;25.80;99.90;;;;;;5055053;28;20165;-61
2023/06/22 11:51:56;;;;;;;2.67;2.20;;;25.80;99.90;;;;;;5056226;28;20666;-61
2023/06/22 11:54:21;;;;;;;4.07;2.28;;;25.80;99.90;;;;;;5054466;28;20169;-58
2023/06/22 11:56:47;;;;;;;2.88;2.50;;;25.80;99.90;;;;;;5053277;28;20260;-61
2023/06/22 11:59:14;;;;;;;2.90;2.60;;;25.80;99.90;;;;;;5055396;28;20169;-61
2023/06/22 12:01:40;;;;;;;2.80;2.60;;;25.90;99.90;;;;;;5053786;28;20256;-61
2023/06/22 12:04:05;;;;;;;3.40;3.20;;;25.90;99.90;;;;;;5054805;28;20238;-61
2023/06/22 12:06:41;;;;;;;3.50;3.20;;;26.00;99.90;;;;;;5053146;28;20482;-60
2023/06/22 12:09:07;;;;;;;3.50;3.20;;;26.00;99.90;;;;;;5052152;28;20172;-60
2023/06/22 12:11:32;;;;;;;3.10;2.80;;;26.10;99.90;;;;;;5052056;28;20200;-59
2023/06/22 12:14:01;;;;;;;3.35;3.05;;;26.20;99.90;;;;;;5051176;28;20541;-60
2023/06/22 12:16:27;;;;;;;3.20;3.00;;;26.20;99.90;;;;;;5052616;28;20669;-58
2023/06/22 12:18:53;;;;;;;3.35;3.13;;;26.30;99.90;;;;;;5050679;28;20172;-60
2023/06/22 12:21:19;;;;;;;3.70;3.30;;;26.40;99.90;;;;;;5051329;28;20169;-59
2023/06/22 12:23:44;;;;;;;4.60;3.10;;;26.40;99.90;;;;;;5051042;28;20165;-60
2023/06/22 12:26:10;;;;;;;4.30;3.00;;;26.50;99.90;;;;;;5050190;28;20174;-60
2023/06/22 12:28:36;;;;;;;2.90;2.70;;;26.60;99.90;;;;;;5051633;28;20161;-58
2023/06/22 12:31:02;;;;;;;3.08;2.85;;;26.70;99.90;;;;;;5050883;28;20240;-60
2023/06/22 12:33:30;;;;;;;3.47;3.17;;;26.70;99.90;;;;;;5049811;28;20359;-60
2023/06/22 12:35:56;;;;;;;3.83;3.53;;;26.80;99.90;;;;;;5051441;28;20715;-60
2023/06/22 12:38:21;;;;;;;3.60;3.22;;;26.80;99.90;;;;;;5052108;28;20161;-60
2023/06/22 12:40:49;;;;;;;3.92;3.45;;;26.90;99.90;;;;;;5052304;28;20244;-60
2023/06/22 12:43:15;;;;;;;3.72;3.33;;;26.80;99.90;;;;;;5051783;28;20177;-61
2023/06/22 12:45:40;;;;;;;4.05;3.65;;;26.90;99.90;;;;;;5052833;28;20256;-60
2023/06/22 12:48:08;;;;;;;3.83;3.47;;;26.90;99.90;;;;;;5052316;28;20284;-60
2023/06/22 12:50:43;;;;;;;3.90;3.50;;;26.90;99.90;;;;;;5053140;28;20238;-58
2023/06/22 12:53:13;;;;;;;4.35;3.30;;;27.00;99.90;;;;;;5052732;28;20557;-59
2023/06/22 12:55:39;;;;;;;4.97;3.58;;;27.00;99.90;;;;;;5052597;28;20193;-59
2023/06/22 12:58:06;;;;;;;3.80;3.47;;;27.10;99.90;;;;;;5035941;28;20200;-59